createdAt,value
2018-03-29T00:00:50.832Z,0.80
2018-03-29T00:03:18.286Z,0.40
2018-03-29T00:05:45.671Z,0.70
2018-03-29T00:08:13.093Z,0.55
2018-03-29T00:10:40.488Z,0.60
2018-03-29T00:13:08.009Z,0.50
2018-03-29T00:15:35.660Z,0.75
2018-03-29T00:18:03.083Z,0.50
2018-03-29T00:20:30.514Z,0.68
2018-03-29T00:22:57.973Z,0.50
2018-03-29T00:25:25.559Z,0.55
2018-03-29T00:27:53.018Z,0.62
2018-03-29T00:30:20.420Z,0.52
2018-03-29T00:32:47.928Z,0.50
2018-03-29T00:35:15.324Z,0.60
2018-03-29T00:37:42.717Z,0.60
2018-03-29T00:40:10.149Z,0.50
2018-03-29T00:42:37.533Z,0.50
2018-03-29T00:45:04.977Z,0.40
2018-03-29T00:47:32.417Z,0.50
2018-03-29T00:49:59.836Z,0.50
2018-03-29T00:52:27.492Z,0.50
2018-03-29T00:54:54.901Z,0.95
2018-03-29T00:57:22.322Z,0.50
2018-03-29T00:59:50.511Z,0.50
2018-03-29T01:02:17.942Z,0.60
2018-03-29T01:04:45.640Z,0.40
2018-03-29T01:07:13.093Z,0.60
2018-03-29T01:09:40.684Z,0.50
2018-03-29T01:12:08.481Z,0.40
2018-03-29T01:14:36.043Z,0.50
2018-03-29T01:17:03.475Z,0.55
2018-03-29T01:19:30.921Z,0.65
2018-03-29T01:21:59.109Z,0.50
2018-03-29T01:24:26.611Z,0.50
2018-03-29T01:26:54.008Z,0.50
2018-03-29T01:29:21.460Z,0.65
2018-03-29T01:31:48.900Z,0.50
2018-03-29T01:34:16.288Z,0.90
2018-03-29T01:36:43.694Z,0.62
2018-03-29T01:39:11.159Z,0.60
2018-03-29T01:41:38.564Z,0.50
2018-03-29T01:44:06.028Z,0.47
2018-03-29T01:46:33.444Z,0.98
2018-03-29T01:49:00.897Z,0.50
2018-03-29T01:51:28.540Z,1.05
2018-03-29T01:53:56.512Z,0.50
2018-03-29T01:56:23.920Z,0.50
2018-03-29T01:58:51.349Z,0.40
2018-03-29T02:01:18.785Z,0.40
2018-03-29T02:03:46.273Z,0.50
2018-03-29T02:06:13.805Z,0.90
2018-03-29T02:08:41.991Z,0.60
2018-03-29T02:11:09.426Z,0.80
2018-03-29T02:13:36.821Z,0.50
2018-03-29T02:16:04.298Z,0.50
2018-03-29T02:18:31.713Z,0.47
2018-03-29T02:20:59.842Z,0.40
2018-03-29T02:23:27.260Z,0.50
2018-03-29T02:25:54.656Z,0.40
2018-03-29T02:28:22.137Z,0.40
2018-03-29T02:30:49.612Z,0.57
2018-03-29T02:33:16.996Z,0.50
2018-03-29T02:35:44.501Z,0.50
2018-03-29T02:38:11.931Z,0.60
2018-03-29T02:40:39.405Z,0.50
2018-03-29T02:43:06.797Z,0.50
2018-03-29T02:45:34.271Z,0.60
2018-03-29T02:48:01.712Z,0.57
2018-03-29T02:50:29.191Z,0.75
2018-03-29T02:52:56.594Z,0.40
2018-03-29T02:55:23.980Z,0.73
2018-03-29T02:57:51.410Z,0.50
2018-03-29T03:00:18.879Z,0.50
2018-03-29T03:02:46.445Z,0.50
2018-03-29T03:05:14.324Z,0.50
2018-03-29T03:07:41.803Z,0.50
2018-03-29T03:10:09.265Z,0.60
2018-03-29T03:12:36.738Z,0.50
2018-03-29T03:15:04.206Z,0.55
2018-03-29T03:17:31.629Z,0.73
2018-03-29T03:19:59.098Z,0.60
2018-03-29T03:22:26.550Z,0.50
2018-03-29T03:24:53.976Z,0.52
2018-03-29T03:27:21.543Z,0.57
2018-03-29T03:29:49.921Z,0.60
2018-03-29T03:32:17.383Z,0.60
2018-03-29T03:34:44.782Z,0.50
2018-03-29T03:37:12.840Z,0.50
2018-03-29T03:39:40.298Z,0.90
2018-03-29T03:42:07.782Z,0.73
2018-03-29T03:44:35.224Z,0.55
2018-03-29T03:47:02.692Z,0.70
2018-03-29T03:49:30.080Z,0.50
2018-03-29T03:51:57.528Z,0.65
2018-03-29T03:54:25.041Z,0.70
2018-03-29T03:56:52.498Z,0.70
2018-03-29T03:59:19.921Z,0.60
2018-03-29T04:01:47.353Z,0.60
2018-03-29T04:04:14.833Z,0.60
2018-03-29T04:06:42.242Z,0.62
2018-03-29T04:09:09.675Z,0.50
2018-03-29T04:11:37.077Z,0.90
2018-03-29T04:14:04.481Z,1.10
2018-03-29T04:16:31.876Z,0.70
2018-03-29T04:18:59.319Z,0.50
2018-03-29T04:21:26.781Z,0.62
2018-03-29T04:23:54.281Z,0.60
2018-03-29T04:26:21.758Z,0.60
2018-03-29T04:28:49.144Z,0.55
2018-03-29T04:31:16.538Z,0.60
2018-03-29T04:33:43.997Z,0.60
2018-03-29T04:36:11.474Z,0.60
2018-03-29T04:38:38.892Z,0.50
2018-03-29T04:41:06.326Z,0.52
2018-03-29T04:43:33.789Z,0.70
2018-03-29T04:46:01.188Z,0.70
2018-03-29T04:48:28.609Z,0.50
2018-03-29T04:50:56.042Z,0.70
2018-03-29T04:53:23.428Z,1.27
2018-03-29T04:55:50.901Z,0.80
2018-03-29T04:58:18.340Z,0.60
2018-03-29T05:00:45.785Z,0.90
2018-03-29T05:03:13.185Z,1.35
2018-03-29T05:05:40.616Z,0.75
2018-03-29T05:08:08.078Z,0.50
2018-03-29T05:10:35.492Z,1.00
2018-03-29T05:13:02.938Z,0.60
2018-03-29T05:15:30.335Z,0.62
2018-03-29T05:17:57.762Z,0.60
2018-03-29T05:20:25.186Z,0.70
2018-03-29T05:22:52.763Z,0.50
2018-03-29T05:25:20.177Z,0.80
2018-03-29T05:28:02.357Z,0.50
2018-03-29T05:30:29.801Z,0.57
2018-03-29T05:32:57.252Z,1.23
2018-03-29T05:35:24.670Z,0.95
2018-03-29T05:37:52.133Z,1.15
2018-03-29T05:40:19.587Z,0.70
2018-03-29T05:42:47.066Z,0.60
2018-03-29T05:45:14.565Z,0.75
2018-03-29T05:47:42.101Z,0.50
2018-03-29T05:50:09.653Z,0.73
2018-03-29T05:52:37.105Z,0.80
2018-03-29T05:55:04.541Z,0.90
2018-03-29T05:57:32.004Z,0.55
2018-03-29T05:59:59.463Z,0.62
2018-03-29T06:02:27.633Z,0.85
2018-03-29T06:04:55.132Z,0.80
2018-03-29T06:07:22.640Z,0.70
2018-03-29T06:09:50.677Z,0.50
2018-03-29T06:12:18.100Z,0.65
2018-03-29T06:14:45.554Z,0.50
2018-03-29T06:17:18.680Z,0.50
2018-03-29T06:19:46.081Z,0.77
2018-03-29T06:22:13.537Z,0.73
2018-03-29T06:24:41.048Z,0.73
2018-03-29T06:27:08.594Z,0.80
2018-03-29T06:29:35.994Z,1.08
2018-03-29T06:32:03.419Z,0.88
2018-03-29T06:34:30.939Z,1.15
2018-03-29T06:36:58.353Z,0.98
2018-03-29T06:39:25.828Z,1.10
2018-03-29T06:41:53.212Z,1.20
2018-03-29T06:44:20.610Z,1.10
2018-03-29T06:46:48.046Z,0.77
2018-03-29T06:49:15.441Z,0.60
2018-03-29T06:51:42.931Z,0.75
2018-03-29T06:54:10.791Z,0.90
2018-03-29T06:56:38.211Z,0.98
2018-03-29T06:59:05.647Z,0.62
2018-03-29T07:01:33.038Z,1.15
2018-03-29T07:04:00.437Z,0.85
2018-03-29T07:06:27.932Z,0.85
2018-03-29T07:08:55.653Z,1.23
2018-03-29T07:11:23.055Z,3.45
2018-03-29T07:13:50.512Z,0.65
2018-03-29T07:16:18.023Z,1.02
2018-03-29T07:18:45.680Z,1.00
2018-03-29T07:21:13.148Z,0.90
2018-03-29T07:23:40.708Z,1.35
2018-03-29T07:26:08.176Z,1.20
2018-03-29T07:28:36.198Z,0.80
2018-03-29T07:31:03.694Z,0.70
2018-03-29T07:33:31.177Z,0.73
2018-03-29T07:35:58.568Z,1.60
2018-03-29T07:38:26.044Z,1.52
2018-03-29T07:40:53.473Z,1.00
2018-03-29T07:43:20.907Z,0.90
2018-03-29T07:45:48.339Z,1.23
2018-03-29T07:48:15.931Z,0.80
2018-03-29T07:50:43.436Z,1.00
2018-03-29T07:53:10.983Z,0.90
2018-03-29T07:55:38.385Z,1.20
2018-03-29T07:58:05.913Z,1.30
2018-03-29T08:00:33.349Z,1.00
2018-03-29T08:03:00.875Z,0.85
2018-03-29T08:05:28.295Z,1.00
2018-03-29T08:07:55.735Z,0.80
2018-03-29T08:10:23.162Z,0.68
2018-03-29T08:12:50.678Z,0.77
2018-03-29T08:15:18.111Z,0.90
2018-03-29T08:17:45.511Z,0.80
2018-03-29T08:20:12.951Z,0.70
2018-03-29T08:22:40.628Z,1.10
2018-03-29T08:25:08.051Z,0.70
2018-03-29T08:27:35.733Z,1.35
2018-03-29T08:30:03.131Z,0.80
2018-03-29T08:32:30.604Z,0.80
2018-03-29T08:34:58.195Z,0.70
2018-03-29T08:37:25.850Z,1.02
2018-03-29T08:39:53.299Z,1.17
2018-03-29T08:42:21.270Z,0.50
2018-03-29T08:44:48.697Z,0.80
2018-03-29T08:47:16.124Z,1.10
2018-03-29T08:49:43.588Z,1.30
2018-03-29T08:52:11.002Z,0.95
2018-03-29T08:54:38.448Z,1.08
2018-03-29T08:57:05.939Z,0.93
2018-03-29T08:59:33.394Z,0.88
2018-03-29T09:02:00.865Z,0.70
2018-03-29T09:04:28.309Z,1.00
2018-03-29T09:06:55.733Z,0.90
2018-03-29T09:09:23.792Z,1.12
2018-03-29T09:11:51.266Z,1.00
2018-03-29T09:14:19.570Z,1.52
2018-03-29T09:16:47.046Z,1.10
2018-03-29T09:19:14.454Z,0.77
2018-03-29T09:21:42.018Z,0.77
2018-03-29T09:24:09.448Z,0.60
2018-03-29T09:26:36.847Z,0.82
2018-03-29T09:29:04.288Z,1.35
2018-03-29T09:31:32.489Z,1.00
2018-03-29T09:34:00.124Z,1.45
2018-03-29T09:36:27.541Z,0.80
2018-03-29T09:38:55.004Z,1.00
2018-03-29T09:41:22.602Z,0.80
2018-03-29T09:43:50.037Z,1.37
2018-03-29T09:46:19.100Z,0.80
2018-03-29T09:48:46.516Z,0.80
2018-03-29T09:51:13.954Z,0.80
2018-03-29T09:53:42.137Z,1.00
2018-03-29T09:56:09.633Z,1.70
2018-03-29T09:58:37.065Z,0.95
2018-03-29T10:01:07.586Z,1.00
2018-03-29T10:03:39.960Z,0.70
2018-03-29T10:06:07.791Z,0.75
2018-03-29T10:08:35.287Z,0.70
2018-03-29T10:11:02.766Z,1.20
2018-03-29T10:13:30.193Z,0.70
2018-03-29T10:15:57.732Z,0.70
2018-03-29T10:18:25.154Z,1.55
2018-03-29T10:20:52.551Z,0.70
2018-03-29T10:23:20.233Z,1.85
2018-03-29T10:25:47.654Z,1.08
2018-03-29T10:28:15.058Z,1.33
2018-03-29T10:30:42.494Z,0.75
2018-03-29T10:33:09.921Z,0.90
2018-03-29T10:35:37.513Z,1.23
2018-03-29T10:38:04.908Z,0.70
2018-03-29T10:40:32.330Z,0.68
2018-03-29T10:42:59.884Z,2.85
2018-03-29T10:45:27.416Z,0.88
2018-03-29T10:47:54.868Z,0.70
2018-03-29T10:50:22.283Z,0.93
2018-03-29T10:52:49.677Z,0.82
2018-03-29T10:55:17.169Z,0.77
2018-03-29T10:57:44.607Z,1.62
2018-03-29T11:00:12.095Z,0.80
2018-03-29T11:02:39.509Z,0.77
2018-03-29T11:05:06.933Z,0.88
2018-03-29T11:07:34.478Z,0.88
2018-03-29T11:10:01.888Z,1.15
2018-03-29T11:12:29.293Z,1.10
2018-03-29T11:14:56.861Z,1.05
2018-03-29T11:17:24.346Z,0.73
2018-03-29T11:19:51.834Z,0.80
2018-03-29T11:22:19.300Z,0.60
2018-03-29T11:24:46.922Z,0.70
2018-03-29T11:27:14.327Z,0.60
2018-03-29T11:29:41.761Z,1.10
2018-03-29T11:32:09.260Z,0.82
2018-03-29T11:34:36.748Z,0.90
2018-03-29T11:37:04.279Z,0.70
2018-03-29T11:39:31.728Z,0.80
2018-03-29T11:41:59.172Z,1.10
2018-03-29T11:44:26.631Z,0.70
2018-03-29T11:46:54.119Z,0.70
2018-03-29T11:49:21.647Z,0.80
2018-03-29T11:51:49.040Z,0.88
2018-03-29T11:54:16.509Z,0.60
2018-03-29T11:56:44.223Z,0.60
2018-03-29T11:59:11.649Z,1.00
2018-03-29T12:01:39.083Z,0.70
2018-03-29T12:04:06.512Z,0.62
2018-03-29T12:06:33.954Z,0.82
2018-03-29T12:09:01.484Z,0.70
2018-03-29T12:11:28.963Z,0.80
2018-03-29T12:13:56.423Z,1.60
2018-03-29T12:16:23.874Z,0.80
2018-03-29T12:18:51.562Z,1.02
2018-03-29T12:21:19.073Z,0.60
2018-03-29T12:23:46.667Z,0.62
2018-03-29T12:26:14.106Z,0.60
2018-03-29T12:28:41.512Z,1.08
2018-03-29T12:31:08.912Z,0.60
2018-03-29T12:33:36.348Z,1.40
2018-03-29T12:36:03.749Z,0.90
2018-03-29T12:38:31.145Z,2.45
2018-03-29T12:40:58.656Z,0.88
2018-03-29T12:43:26.080Z,1.10
2018-03-29T12:45:53.515Z,0.77
2018-03-29T12:48:20.993Z,0.70
2018-03-29T12:50:48.473Z,1.12
2018-03-29T12:53:15.914Z,1.05
2018-03-29T12:55:43.629Z,1.10
2018-03-29T12:58:11.132Z,0.70
2018-03-29T13:00:38.734Z,0.90
2018-03-29T13:03:06.242Z,1.00
2018-03-29T13:05:33.697Z,0.80
2018-03-29T13:08:01.213Z,1.10
2018-03-29T13:10:28.634Z,0.80
2018-03-29T13:12:56.244Z,1.33
2018-03-29T13:15:23.710Z,0.80
2018-03-29T13:17:51.102Z,2.10
2018-03-29T13:20:18.537Z,1.10
2018-03-29T13:22:46.052Z,1.12
2018-03-29T13:25:13.521Z,1.20
2018-03-29T13:27:41.157Z,0.80
2018-03-29T13:30:08.573Z,0.70
2018-03-29T13:32:35.968Z,2.97
2018-03-29T13:35:03.536Z,0.80
2018-03-29T13:37:31.640Z,0.60
2018-03-29T13:39:59.090Z,0.73
2018-03-29T13:42:26.567Z,0.70
2018-03-29T13:44:53.994Z,0.95
2018-03-29T13:47:21.439Z,2.12
2018-03-29T13:49:48.968Z,0.90
2018-03-29T13:52:16.422Z,0.98
2018-03-29T13:54:43.852Z,1.05
2018-03-29T13:57:11.309Z,2.10
2018-03-29T13:59:38.775Z,1.00
2018-03-29T14:02:06.231Z,2.00
2018-03-29T14:04:33.676Z,1.25
2018-03-29T14:07:01.138Z,1.17
2018-03-29T14:09:28.600Z,1.10
2018-03-29T14:11:56.067Z,1.50
2018-03-29T14:14:23.517Z,0.95
2018-03-29T14:16:50.908Z,0.90
2018-03-29T14:19:18.388Z,0.90
2018-03-29T14:21:45.861Z,1.65
2018-03-29T14:24:13.315Z,1.02
2018-03-29T14:26:41.554Z,1.05
2018-03-29T14:29:09.057Z,0.80
2018-03-29T14:31:36.527Z,1.40
2018-03-29T14:34:04.007Z,1.70
2018-03-29T14:36:31.445Z,1.52
2018-03-29T14:38:58.872Z,1.30
2018-03-29T14:41:26.397Z,0.80
2018-03-29T14:43:53.894Z,1.35
2018-03-29T14:46:21.320Z,1.27
2018-03-29T14:48:48.764Z,0.93
2018-03-29T14:51:16.198Z,1.60
2018-03-29T14:53:43.668Z,1.20
2018-03-29T14:56:11.163Z,1.87
2018-03-29T14:58:38.597Z,1.20
2018-03-29T15:01:06.030Z,0.80
2018-03-29T15:03:33.494Z,0.93
2018-03-29T15:06:00.940Z,1.55
2018-03-29T15:08:28.455Z,0.98
2018-03-29T15:10:55.958Z,1.20
2018-03-29T15:13:23.463Z,1.33
2018-03-29T15:15:50.892Z,1.70
2018-03-29T15:18:18.437Z,0.95
2018-03-29T15:20:45.835Z,1.12
2018-03-29T15:23:13.282Z,1.10
2018-03-29T15:25:40.758Z,1.08
2018-03-29T15:28:08.214Z,1.25
2018-03-29T15:30:35.673Z,1.33
2018-03-29T15:33:03.184Z,1.12
2018-03-29T15:35:30.788Z,1.10
2018-03-29T15:37:58.360Z,1.33
2018-03-29T15:40:25.966Z,1.85
2018-03-29T15:42:53.447Z,1.77
2018-03-29T15:45:21.003Z,1.90
2018-03-29T15:47:48.429Z,1.33
2018-03-29T15:50:16.026Z,1.75
2018-03-29T15:52:43.422Z,1.80
2018-03-29T15:55:10.932Z,2.37
2018-03-29T15:57:38.344Z,2.00
2018-03-29T16:00:05.821Z,3.25
2018-03-29T16:02:33.261Z,2.40
2018-03-29T16:05:00.680Z,4.62
2018-03-29T16:07:28.150Z,3.00
2018-03-29T16:09:55.583Z,1.08
2018-03-29T16:12:23.005Z,1.77
2018-03-29T16:14:50.393Z,1.90
2018-03-29T16:17:17.906Z,1.20
2018-03-29T16:19:45.328Z,4.45
2018-03-29T16:22:12.812Z,2.92
2018-03-29T16:24:40.263Z,1.60
2018-03-29T16:27:07.729Z,1.15
2018-03-29T16:29:35.130Z,1.50
2018-03-29T16:32:02.696Z,1.40
2018-03-29T16:34:30.095Z,1.83
2018-03-29T16:36:58.212Z,1.62
2018-03-29T16:39:25.663Z,1.40
2018-03-29T16:41:53.084Z,2.00
2018-03-29T16:44:20.476Z,1.20
2018-03-29T16:46:47.952Z,2.10
2018-03-29T16:49:15.379Z,2.22
2018-03-29T16:51:42.789Z,2.45
2018-03-29T16:54:10.219Z,1.33
2018-03-29T16:56:37.633Z,1.20
2018-03-29T16:59:05.050Z,1.12
2018-03-29T17:01:32.511Z,0.98
2018-03-29T17:04:00.168Z,1.42
2018-03-29T17:06:27.669Z,1.20
2018-03-29T17:08:55.057Z,1.15
2018-03-29T17:11:22.495Z,1.20
2018-03-29T17:13:49.963Z,1.55
2018-03-29T17:16:17.411Z,2.17
2018-03-29T17:18:44.913Z,2.25
2018-03-29T17:21:12.354Z,1.48
2018-03-29T17:23:39.831Z,1.52
2018-03-29T17:26:07.319Z,1.95
2018-03-29T17:28:34.752Z,1.65
2018-03-29T17:31:02.203Z,1.30
2018-03-29T17:33:29.635Z,1.55
2018-03-29T17:35:57.054Z,1.52
2018-03-29T17:38:24.454Z,2.15
2018-03-29T17:40:51.898Z,2.08
2018-03-29T17:43:19.388Z,1.55
2018-03-29T17:45:47.019Z,1.77
2018-03-29T17:48:15.235Z,3.10
2018-03-29T17:50:43.018Z,1.20
2018-03-29T17:53:10.660Z,2.00
2018-03-29T17:55:38.682Z,1.58
2018-03-29T17:58:06.109Z,1.45
2018-03-29T18:00:33.629Z,1.45
2018-03-29T18:03:01.073Z,1.65
2018-03-29T18:05:28.503Z,1.62
2018-03-29T18:07:55.933Z,2.40
2018-03-29T18:10:23.570Z,3.53
2018-03-29T18:12:51.061Z,2.90
2018-03-29T18:15:18.497Z,3.10
2018-03-29T18:17:45.926Z,3.05
2018-03-29T18:20:13.385Z,2.10
2018-03-29T18:22:40.961Z,7.20
2018-03-29T18:25:08.426Z,1.92
2018-03-29T18:27:35.909Z,2.17
2018-03-29T18:30:03.410Z,1.87
2018-03-29T18:32:30.930Z,1.73
2018-03-29T18:34:59.067Z,2.37
2018-03-29T18:37:26.483Z,2.35
2018-03-29T18:39:53.935Z,1.70
2018-03-29T18:42:21.449Z,1.92
2018-03-29T18:44:48.959Z,2.30
2018-03-29T18:47:16.882Z,1.50
2018-03-29T18:49:44.326Z,1.80
2018-03-29T18:52:11.752Z,1.95
2018-03-29T18:54:39.226Z,1.35
2018-03-29T18:57:06.668Z,1.52
2018-03-29T18:59:34.274Z,1.20
2018-03-29T19:02:01.699Z,1.80
2018-03-29T19:04:29.166Z,2.42
2018-03-29T19:06:56.716Z,2.65
2018-03-29T19:09:24.666Z,2.37
2018-03-29T19:11:53.049Z,2.62
2018-03-29T19:14:21.329Z,2.25
2018-03-29T19:16:49.871Z,2.90
2018-03-29T19:19:17.509Z,3.00
2018-03-29T19:21:45.151Z,1.87
2018-03-29T19:24:14.602Z,2.12
2018-03-29T19:26:43.297Z,2.53
2018-03-29T19:29:11.466Z,2.40
2018-03-29T19:31:38.901Z,3.55
2018-03-29T19:34:06.476Z,2.53
2018-03-29T19:36:33.985Z,3.78
2018-03-29T19:39:01.571Z,2.95
2018-03-29T19:41:29.047Z,3.53
2018-03-29T19:43:56.456Z,2.25
2018-03-29T19:46:24.930Z,3.97
2018-03-29T19:48:53.398Z,4.18
2018-03-29T19:51:21.173Z,2.55
2018-03-29T19:53:48.626Z,1.65
2018-03-29T19:56:16.849Z,2.00
2018-03-29T19:58:44.612Z,1.75
2018-03-29T20:01:12.067Z,2.15
2018-03-29T20:03:39.529Z,1.95
2018-03-29T20:06:06.960Z,2.45
2018-03-29T20:08:35.782Z,2.33
2018-03-29T20:11:03.402Z,2.65
2018-03-29T20:13:30.918Z,2.72
2018-03-29T20:15:58.392Z,2.62
2018-03-29T20:18:25.885Z,2.60
2018-03-29T20:20:53.414Z,3.17
2018-03-29T20:23:20.985Z,2.50
2018-03-29T20:25:48.428Z,3.35
2018-03-29T20:28:15.929Z,2.10
2018-03-29T20:30:43.483Z,2.08
2018-03-29T20:33:10.904Z,3.47
2018-03-29T20:35:38.509Z,3.17
2018-03-29T20:38:06.098Z,3.25
2018-03-29T20:40:33.650Z,3.12
2018-03-29T20:43:01.045Z,3.30
2018-03-29T20:45:28.457Z,3.25
2018-03-29T20:47:55.938Z,1.75
2018-03-29T20:50:23.411Z,2.75
2018-03-29T20:52:50.873Z,2.95
2018-03-29T20:55:18.342Z,2.60
2018-03-29T20:57:45.765Z,2.35
2018-03-29T21:00:13.228Z,2.47
2018-03-29T21:02:40.736Z,2.15
2018-03-29T21:05:08.531Z,1.80
2018-03-29T21:07:35.981Z,2.70
2018-03-29T21:10:03.414Z,2.78
2018-03-29T21:12:30.845Z,3.25
2018-03-29T21:14:58.244Z,2.15
2018-03-29T21:17:25.677Z,2.10
2018-03-29T21:19:53.058Z,2.25
2018-03-29T21:22:20.500Z,1.73
2018-03-29T21:24:47.963Z,2.12
2018-03-29T21:27:15.626Z,3.28
2018-03-29T21:29:43.046Z,2.37
2018-03-29T21:32:10.443Z,2.15
2018-03-29T21:34:37.837Z,1.67
2018-03-29T21:37:05.245Z,2.05
2018-03-29T21:39:32.679Z,2.75
2018-03-29T21:42:00.113Z,2.40
2018-03-29T21:44:27.533Z,1.55
2018-03-29T21:46:54.957Z,3.85
2018-03-29T21:49:22.358Z,2.72
2018-03-29T21:51:49.877Z,3.10
2018-03-29T21:54:17.269Z,2.72
2018-03-29T21:56:44.763Z,2.95
2018-03-29T21:59:12.180Z,3.40
2018-03-29T22:01:39.629Z,3.08
2018-03-29T22:04:07.049Z,3.10
2018-03-29T22:06:34.447Z,1.92
2018-03-29T22:09:01.873Z,2.08
2018-03-29T22:11:29.645Z,4.62
2018-03-29T22:13:57.120Z,4.50
2018-03-29T22:16:24.534Z,2.05
2018-03-29T22:18:51.996Z,2.95
2018-03-29T22:21:19.414Z,2.60
2018-03-29T22:23:46.938Z,3.53
2018-03-29T22:26:14.363Z,3.87
2018-03-29T22:28:41.871Z,4.22
2018-03-29T22:31:09.323Z,9.98
2018-03-29T22:33:36.798Z,5.55
2018-03-29T22:36:04.224Z,4.30
2018-03-29T22:38:31.686Z,3.58
2018-03-29T22:40:59.163Z,2.40
2018-03-29T22:43:26.613Z,3.45
2018-03-29T22:45:54.040Z,3.00
2018-03-29T22:48:21.562Z,2.30
2018-03-29T22:50:48.976Z,3.08
2018-03-29T22:53:16.393Z,3.67
2018-03-29T22:55:43.875Z,5.25
2018-03-29T22:58:11.305Z,3.62
2018-03-29T23:00:38.737Z,2.47
2018-03-29T23:03:06.153Z,3.40
2018-03-29T23:05:33.583Z,3.87
2018-03-29T23:08:01.016Z,3.37
2018-03-29T23:10:28.534Z,2.90
2018-03-29T23:12:55.932Z,3.65
2018-03-29T23:15:23.434Z,3.35
2018-03-29T23:17:50.853Z,4.00
2018-03-29T23:20:18.333Z,3.65
2018-03-29T23:22:45.841Z,3.20
2018-03-29T23:25:13.373Z,2.67
2018-03-29T23:27:40.809Z,3.90
2018-03-29T23:30:08.196Z,2.55
2018-03-29T23:32:35.637Z,2.78
2018-03-29T23:35:03.202Z,3.42
2018-03-29T23:37:30.645Z,2.83
2018-03-29T23:39:58.107Z,3.05
2018-03-29T23:42:25.557Z,2.87
2018-03-29T23:44:52.939Z,3.75
2018-03-29T23:47:20.364Z,3.50
2018-03-29T23:49:47.797Z,3.15
2018-03-29T23:52:15.218Z,4.03
2018-03-29T23:54:42.638Z,2.97
2018-03-29T23:57:10.095Z,2.70
2018-03-29T23:59:37.567Z,3.60
